Holts Summit, Missouri
Current Conditions -  °F | °C
As of 9:53 AM on Friday 31 Oct 2014 (Local Time) from KJEF Reporting Station
Clear Clear  
Wind Chill: -1°   Ceiling: Unl
Heat Index:   Visibility: 10mi
Dew Point: -7°   Wind: 17mph
Humidity: 43%   Direction: 340°NNW
Pressure: 30.37"   Gusts: 31mph
Location:  38.64°N, 92.12°W
Report Text: KJEF 311453Z 34015G27KT 10SM CLR 04/M07 A3037 RMK AO2 PK WND 34027/1402 SLP277 T00441072 53026
Loading
Personal Weather Stations






























Interactive Weather Map
Tropical Storm Tracking
New forecast layout! Learn more

10-Day Weather Forecast

Advertisements
Track Severe Weather on mobile